createdAt,value
2022-08-05T00:00:22.719Z,26.91
2022-08-05T00:01:27.971Z,26.94
2022-08-05T00:02:23.737Z,26.95
2022-08-05T00:03:22.689Z,26.99
2022-08-05T00:04:22.658Z,27.02
2022-08-05T00:06:03.201Z,27.00
2022-08-05T00:06:30.684Z,27.02
2022-08-05T00:07:59.732Z,27.03
2022-08-05T00:08:34.865Z,27.00
2022-08-05T00:09:22.644Z,26.99
2022-08-05T00:10:22.567Z,26.99
2022-08-05T00:11:30.651Z,26.99
2022-08-05T00:12:22.582Z,27.03
2022-08-05T00:13:38.391Z,27.06
2022-08-05T00:14:22.536Z,27.03
2022-08-05T00:15:56.229Z,26.88
2022-08-05T00:16:35.635Z,26.67
2022-08-05T00:17:22.523Z,26.50
2022-08-05T00:18:22.869Z,26.36
2022-08-05T00:19:24.687Z,26.20
2022-08-05T00:20:22.437Z,26.13
2022-08-05T00:21:22.449Z,26.18
2022-08-05T00:22:22.455Z,26.23
2022-08-05T00:23:44.711Z,26.20
2022-08-05T00:24:24.536Z,26.02
2022-08-05T00:25:22.414Z,25.83
2022-08-05T00:26:22.563Z,25.52
2022-08-05T00:27:22.436Z,25.25
2022-08-05T00:28:29.649Z,25.05
2022-08-05T00:29:25.375Z,24.96
2022-08-05T00:30:29.278Z,24.91
2022-08-05T00:31:53.191Z,24.84
2022-08-05T00:32:22.298Z,24.73
2022-08-05T00:34:53.220Z,24.64
2022-08-05T00:35:10.501Z,24.68
2022-08-05T00:35:22.260Z,24.80
2022-08-05T00:37:12.782Z,24.88
2022-08-05T00:37:22.266Z,24.98
2022-08-05T00:38:28.910Z,25.06
2022-08-05T00:39:22.209Z,25.14
2022-08-05T00:40:27.100Z,25.24
2022-08-05T00:41:22.753Z,25.33
2022-08-05T00:42:31.685Z,25.38
2022-08-05T00:43:22.167Z,25.46
2022-08-05T00:44:23.178Z,25.55
2022-08-05T00:45:28.413Z,25.62
2022-08-05T00:46:42.471Z,25.69
2022-08-05T00:47:22.147Z,25.76
2022-08-05T00:48:27.583Z,25.80
2022-08-05T00:49:22.113Z,25.85
2022-08-05T00:50:22.087Z,25.91
2022-08-05T00:51:51.884Z,25.92
2022-08-05T00:52:28.127Z,25.94
2022-08-05T00:54:00.359Z,25.97
2022-08-05T00:54:22.016Z,25.98
2022-08-05T00:55:22.087Z,25.98
2022-08-05T00:56:22.735Z,25.97
2022-08-05T00:57:22.127Z,25.94
2022-08-05T00:58:21.975Z,25.92
2022-08-05T00:59:21.972Z,25.90
2022-08-05T01:00:22.077Z,25.88
2022-08-05T01:01:42.239Z,25.85
2022-08-05T01:02:21.915Z,25.79
2022-08-05T01:03:22.940Z,25.76
2022-08-05T01:04:26.580Z,25.73
2022-08-05T01:05:21.944Z,25.73
2022-08-05T01:06:21.944Z,25.75
2022-08-05T01:07:21.854Z,25.69
2022-08-05T01:08:41.290Z,25.62
2022-08-05T01:09:21.826Z,25.60
2022-08-05T01:10:21.823Z,25.62
2022-08-05T01:11:33.251Z,25.67
2022-08-05T01:12:21.800Z,25.72
2022-08-05T01:13:22.527Z,25.76
2022-08-05T01:14:28.470Z,25.79
2022-08-05T01:15:36.323Z,25.85
2022-08-05T01:16:26.123Z,25.88
2022-08-05T01:17:21.967Z,25.92
2022-08-05T01:18:21.693Z,25.97
2022-08-05T01:19:21.697Z,26.02
2022-08-05T01:20:22.382Z,26.09
2022-08-05T01:21:22.881Z,26.12
2022-08-05T01:22:24.099Z,26.15
2022-08-05T01:23:23.313Z,26.18
2022-08-05T01:24:22.088Z,26.23
2022-08-05T01:25:21.692Z,26.25
2022-08-05T01:26:21.622Z,26.26
2022-08-05T01:27:22.246Z,26.30
2022-08-05T01:28:21.784Z,26.32
2022-08-05T01:29:23.091Z,26.30
2022-08-05T01:30:33.604Z,26.26
2022-08-05T01:31:21.549Z,26.21
2022-08-05T01:32:21.546Z,26.18
2022-08-05T01:33:21.522Z,26.13
2022-08-05T01:34:21.507Z,26.09
2022-08-05T01:35:50.780Z,26.09
2022-08-05T01:36:21.558Z,26.07
2022-08-05T01:37:25.168Z,26.09
2022-08-05T01:38:24.711Z,26.12
2022-08-05T01:39:47.575Z,26.10
2022-08-05T01:40:21.429Z,26.09
2022-08-05T01:41:21.913Z,26.07
2022-08-05T01:42:21.402Z,26.12
2022-08-05T01:43:22.091Z,26.15
2022-08-05T01:44:21.384Z,26.21
2022-08-05T01:45:21.359Z,26.28
2022-08-05T01:46:42.791Z,26.32
2022-08-05T01:47:21.727Z,26.35
2022-08-05T01:48:21.328Z,26.37
2022-08-05T01:49:22.866Z,26.35
2022-08-05T01:50:28.606Z,26.32
2022-08-05T01:51:21.281Z,26.21
2022-08-05T01:52:21.276Z,26.10
2022-08-05T01:53:54.836Z,26.05
2022-08-05T01:54:25.627Z,26.01
2022-08-05T01:55:21.245Z,25.98
2022-08-05T01:58:12.249Z,25.92
2022-08-05T01:58:29.769Z,25.85
2022-08-05T01:58:45.750Z,25.83
2022-08-05T01:59:30.057Z,25.82
2022-08-05T02:00:31.093Z,25.80
2022-08-05T02:01:30.073Z,25.77
2022-08-05T02:02:30.147Z,25.73
2022-08-05T02:03:32.260Z,25.73
2022-08-05T02:04:30.160Z,25.67
2022-08-05T02:05:29.965Z,25.64
2022-08-05T02:06:38.373Z,25.55
2022-08-05T02:07:30.450Z,25.50
2022-08-05T02:08:31.641Z,25.47
2022-08-05T02:09:29.904Z,25.47
2022-08-05T02:10:29.958Z,25.46
2022-08-05T02:11:33.525Z,25.47
2022-08-05T02:12:32.884Z,25.50
2022-08-05T02:13:48.592Z,25.50
2022-08-05T02:14:32.117Z,25.54
2022-08-05T02:15:33.231Z,25.58
2022-08-05T02:16:29.849Z,25.62
2022-08-05T02:18:32.235Z,25.67
2022-08-05T02:18:42.039Z,25.72
2022-08-05T02:19:34.274Z,25.73
2022-08-05T02:20:29.782Z,25.75
2022-08-05T02:21:30.448Z,25.76
2022-08-05T02:22:29.749Z,25.77
2022-08-05T02:23:33.781Z,25.80
2022-08-05T02:24:29.763Z,25.82
2022-08-05T02:25:33.423Z,25.85
2022-08-05T02:26:29.714Z,25.90
2022-08-05T02:27:57.666Z,25.94
2022-08-05T02:28:32.963Z,25.98
2022-08-05T02:29:58.487Z,25.99
2022-08-05T02:30:29.911Z,26.02
2022-08-05T02:31:34.813Z,26.05
2022-08-05T02:32:31.465Z,26.01
2022-08-05T02:33:35.988Z,25.91
2022-08-05T02:34:29.580Z,25.82
2022-08-05T02:35:33.280Z,25.75
2022-08-05T02:36:31.343Z,25.72
2022-08-05T02:37:29.565Z,25.70
2022-08-05T02:38:35.350Z,25.73
2022-08-05T02:39:29.682Z,25.73
2022-08-05T02:40:29.491Z,25.79
2022-08-05T02:41:36.450Z,25.82
2022-08-05T02:42:33.051Z,25.87
2022-08-05T02:43:29.500Z,25.88
2022-08-05T02:44:29.471Z,25.90
2022-08-05T02:45:52.706Z,25.91
2022-08-05T02:46:29.471Z,25.91
2022-08-05T02:47:58.747Z,25.87
2022-08-05T02:48:29.947Z,25.83
2022-08-05T02:49:36.179Z,25.82
2022-08-05T02:50:29.388Z,25.82
2022-08-05T02:52:03.781Z,25.82
2022-08-05T02:52:30.865Z,25.82
2022-08-05T02:53:29.363Z,25.77
2022-08-05T02:54:36.300Z,25.69
2022-08-05T02:55:54.688Z,25.55
2022-08-05T02:56:29.290Z,25.43
2022-08-05T02:58:12.349Z,25.32
2022-08-05T02:58:30.349Z,25.21
2022-08-05T02:59:29.284Z,25.13
2022-08-05T03:00:29.253Z,25.08
2022-08-05T03:01:29.288Z,25.08
2022-08-05T03:02:29.216Z,25.08
2022-08-05T03:03:34.192Z,25.05
2022-08-05T03:04:29.243Z,25.03
2022-08-05T03:06:55.445Z,24.99
2022-08-05T03:07:03.532Z,24.93
2022-08-05T03:08:00.486Z,24.88
2022-08-05T03:08:30.037Z,24.90
2022-08-05T03:09:37.473Z,24.93
2022-08-05T03:10:29.179Z,24.91
2022-08-05T03:11:56.441Z,24.93
2022-08-05T03:12:29.085Z,24.90
2022-08-05T03:13:51.510Z,24.88
2022-08-05T03:14:29.079Z,24.90
2022-08-05T03:15:29.080Z,24.88
2022-08-05T03:16:29.042Z,24.91
2022-08-05T03:17:29.075Z,24.93
2022-08-05T03:18:30.156Z,24.90
2022-08-05T03:19:34.594Z,24.85
2022-08-05T03:20:29.016Z,24.85
2022-08-05T03:21:29.543Z,24.88
2022-08-05T03:22:32.332Z,24.90
2022-08-05T03:23:28.928Z,24.91
2022-08-05T03:24:29.874Z,24.91
2022-08-05T03:25:33.533Z,24.91
2022-08-05T03:26:31.481Z,24.90
2022-08-05T03:27:29.506Z,24.88
2022-08-05T03:28:28.908Z,24.87
2022-08-05T03:29:45.941Z,24.84
2022-08-05T03:30:33.726Z,24.85
2022-08-05T03:31:56.590Z,24.85
2022-08-05T03:32:30.941Z,24.87
2022-08-05T03:33:32.292Z,24.85
2022-08-05T03:34:28.836Z,24.84
2022-08-05T03:35:28.804Z,24.83
2022-08-05T03:36:30.525Z,24.78
2022-08-05T03:37:28.776Z,24.71
2022-08-05T03:38:33.177Z,24.64
2022-08-05T03:39:28.812Z,24.57
2022-08-05T03:40:32.110Z,24.50
2022-08-05T03:41:32.942Z,24.46
2022-08-05T03:42:29.049Z,24.46
2022-08-05T03:44:09.731Z,24.42
2022-08-05T03:44:29.039Z,24.39
2022-08-05T03:45:28.667Z,24.30
2022-08-05T03:46:29.835Z,24.30
2022-08-05T03:47:35.261Z,24.32
2022-08-05T03:48:29.112Z,24.37
2022-08-05T03:49:31.078Z,24.39
2022-08-05T03:50:28.634Z,24.42
2022-08-05T03:52:48.554Z,24.45
2022-08-05T03:56:10.042Z,24.46
2022-08-05T03:56:30.470Z,24.32
2022-08-05T03:56:50.040Z,24.28
2022-08-05T03:57:49.500Z,24.31
2022-08-05T03:58:51.099Z,24.31
2022-08-05T03:59:54.714Z,24.30
2022-08-05T04:00:51.566Z,24.28
2022-08-05T04:01:49.133Z,24.31
2022-08-05T04:02:58.077Z,24.30
2022-08-05T04:04:09.691Z,24.25
2022-08-05T04:04:49.076Z,24.21
2022-08-05T04:05:49.055Z,24.16
2022-08-05T04:06:51.068Z,24.13
2022-08-05T04:07:58.042Z,24.09
2022-08-05T04:08:48.990Z,24.08
2022-08-05T04:09:53.698Z,24.06
2022-08-05T04:10:48.981Z,24.08
2022-08-05T04:11:50.837Z,24.08
2022-08-05T04:12:48.927Z,24.05
2022-08-05T04:13:49.915Z,24.02
2022-08-05T04:14:48.901Z,24.00
2022-08-05T04:16:02.965Z,23.98
2022-08-05T04:16:48.907Z,23.97
2022-08-05T04:17:57.338Z,23.95
2022-08-05T04:18:54.279Z,23.95
2022-08-05T04:19:48.830Z,23.97
2022-08-05T04:20:48.870Z,24.02
2022-08-05T04:22:08.391Z,24.02
2022-08-05T04:22:48.788Z,24.06
2022-08-05T04:24:05.931Z,24.05
2022-08-05T04:24:52.584Z,24.05
2022-08-05T04:26:00.290Z,24.08
2022-08-05T04:26:48.764Z,24.08
2022-08-05T04:27:57.237Z,24.10
2022-08-05T04:28:51.263Z,24.16
2022-08-05T04:29:48.715Z,24.22
2022-08-05T04:30:48.711Z,24.27
2022-08-05T04:31:49.729Z,24.31
2022-08-05T04:32:48.684Z,24.32
2022-08-05T04:34:17.011Z,24.35
2022-08-05T04:34:48.652Z,24.37
2022-08-05T04:36:16.739Z,24.40
2022-08-05T04:36:50.506Z,24.46
2022-08-05T04:38:01.647Z,24.49
2022-08-05T04:38:51.063Z,24.55
2022-08-05T04:39:52.962Z,24.57
2022-08-05T04:40:50.933Z,24.62
2022-08-05T04:41:48.600Z,24.65
2022-08-05T04:42:48.565Z,24.65
2022-08-05T04:43:52.134Z,24.65
2022-08-05T04:44:48.503Z,24.67
2022-08-05T04:45:54.930Z,24.67
2022-08-05T04:46:48.680Z,24.68
2022-08-05T04:47:48.485Z,24.71
2022-08-05T04:48:48.485Z,24.76
2022-08-05T04:50:01.603Z,24.76
2022-08-05T04:51:01.655Z,24.77
2022-08-05T04:51:48.425Z,24.78
2022-08-05T04:52:48.462Z,24.77
2022-08-05T04:53:48.422Z,24.78
2022-08-05T04:54:49.426Z,24.80
2022-08-05T04:56:33.446Z,24.81
2022-08-05T04:56:48.340Z,24.87
2022-08-05T04:57:51.537Z,24.91
2022-08-05T04:58:48.366Z,24.95
2022-08-05T04:59:48.324Z,24.99
2022-08-05T05:00:50.699Z,25.00
2022-08-05T05:02:35.457Z,25.05
2022-08-05T05:02:48.341Z,25.09
2022-08-05T05:03:48.280Z,25.14
2022-08-05T05:04:50.644Z,25.18
2022-08-05T05:06:40.614Z,25.24
2022-08-05T05:06:57.480Z,25.25
2022-08-05T05:07:52.951Z,25.21
2022-08-05T05:08:50.176Z,25.18
2022-08-05T05:09:48.200Z,25.20
2022-08-05T05:10:55.955Z,25.24
2022-08-05T05:11:53.901Z,25.25
2022-08-05T05:12:48.167Z,25.30
2022-08-05T05:13:48.169Z,25.30
2022-08-05T05:14:50.714Z,25.33
2022-08-05T05:15:59.437Z,25.35
2022-08-05T05:16:48.079Z,25.36
2022-08-05T05:17:48.150Z,25.39
2022-08-05T05:19:09.222Z,25.40
2022-08-05T05:19:48.078Z,25.40
2022-08-05T05:20:48.244Z,25.42
2022-08-05T05:21:48.015Z,25.40
2022-08-05T05:22:48.033Z,25.28
2022-08-05T05:24:02.818Z,25.14
2022-08-05T05:24:57.451Z,24.99
2022-08-05T05:25:48.020Z,24.80
2022-08-05T05:26:48.014Z,24.53
2022-08-05T05:27:53.568Z,24.34
2022-08-05T05:28:48.021Z,24.27
2022-08-05T05:30:03.519Z,24.24
2022-08-05T05:30:49.721Z,24.16
2022-08-05T05:31:47.925Z,24.10
2022-08-05T05:32:47.888Z,24.06
2022-08-05T05:34:01.731Z,24.05
2022-08-05T05:34:47.889Z,24.05
2022-08-05T05:35:48.116Z,24.05
2022-08-05T05:36:47.835Z,24.06
2022-08-05T05:38:00.245Z,24.13
2022-08-05T05:38:47.870Z,24.20
2022-08-05T05:39:47.879Z,24.27
2022-08-05T05:40:51.367Z,24.34
2022-08-05T05:41:54.436Z,24.40
2022-08-05T05:42:47.774Z,24.40
2022-08-05T05:43:57.360Z,24.40
2022-08-05T05:44:47.785Z,24.40
2022-08-05T05:45:48.432Z,24.40
2022-08-05T05:46:47.868Z,24.43
2022-08-05T05:48:05.317Z,24.43
2022-08-05T05:48:48.227Z,24.47
2022-08-05T05:49:47.726Z,24.47
2022-08-05T05:50:47.685Z,24.50
2022-08-05T05:51:50.649Z,24.52
2022-08-05T05:52:47.720Z,24.53
2022-08-05T05:53:57.786Z,24.50
2022-08-05T05:54:51.107Z,24.47
2022-08-05T05:55:52.112Z,24.50
2022-08-05T05:56:47.593Z,24.53
2022-08-05T05:57:52.360Z,24.60
2022-08-05T05:58:47.561Z,24.61
2022-08-05T05:59:47.587Z,24.61
2022-08-05T06:00:47.527Z,24.58
2022-08-05T06:01:57.922Z,24.57
2022-08-05T06:02:47.486Z,24.55
2022-08-05T06:04:00.551Z,24.47
2022-08-05T06:04:49.320Z,24.39
2022-08-05T06:05:54.135Z,24.25
2022-08-05T06:06:49.043Z,24.18
2022-08-05T06:08:01.173Z,24.15
2022-08-05T06:08:49.115Z,24.16
2022-08-05T06:09:59.918Z,24.22
2022-08-05T06:10:52.541Z,24.30
2022-08-05T06:11:59.684Z,24.35
2022-08-05T06:12:47.398Z,24.45
2022-08-05T06:13:53.609Z,24.52
2022-08-05T06:14:47.430Z,24.64
2022-08-05T06:16:31.324Z,24.73
2022-08-05T06:16:47.330Z,24.83
2022-08-05T06:17:53.125Z,24.91
2022-08-05T06:18:48.053Z,25.00
2022-08-05T06:19:56.757Z,25.06
2022-08-05T06:20:47.793Z,25.09
2022-08-05T06:21:49.617Z,25.13
2022-08-05T06:22:47.284Z,25.20
2022-08-05T06:23:47.252Z,25.25
2022-08-05T06:24:48.803Z,25.32
2022-08-05T06:26:13.764Z,25.38
2022-08-05T06:26:52.378Z,25.45
2022-08-05T06:28:11.172Z,25.50
2022-08-05T06:28:47.184Z,25.51
2022-08-05T06:30:04.517Z,25.51
2022-08-05T06:30:47.177Z,25.52
2022-08-05T06:31:47.118Z,25.54
2022-08-05T06:32:47.132Z,25.57
2022-08-05T06:34:06.934Z,25.60
2022-08-05T06:34:47.089Z,25.62
2022-08-05T06:36:08.024Z,25.65
2022-08-05T06:36:57.888Z,25.67
2022-08-05T06:37:58.143Z,25.70
2022-08-05T06:38:47.303Z,25.75
2022-08-05T06:39:47.085Z,25.73
2022-08-05T06:40:47.040Z,25.77
2022-08-05T06:41:47.678Z,25.80
2022-08-05T06:42:46.996Z,25.85
2022-08-05T06:43:57.998Z,25.91
2022-08-05T06:44:47.017Z,25.92
2022-08-05T06:46:06.738Z,25.94
2022-08-05T06:46:46.951Z,25.97
2022-08-05T06:48:37.283Z,25.99
2022-08-05T06:49:01.303Z,26.06
2022-08-05T06:50:02.084Z,26.10
2022-08-05T06:50:46.929Z,26.12
2022-08-05T06:51:46.852Z,26.15
2022-08-05T06:53:03.502Z,26.17
2022-08-05T06:53:53.531Z,26.18
2022-08-05T06:54:46.812Z,26.25
2022-08-05T06:55:46.879Z,26.28
2022-08-05T06:56:54.849Z,26.29
2022-08-05T06:57:57.154Z,26.32
2022-08-05T06:58:46.886Z,26.35
2022-08-05T06:59:48.563Z,26.37
2022-08-05T07:00:46.838Z,26.37
2022-08-05T07:01:46.813Z,26.40
2022-08-05T07:02:46.755Z,26.43
2022-08-05T07:03:46.706Z,26.44
2022-08-05T07:04:46.714Z,26.47
2022-08-05T07:05:46.694Z,26.51
2022-08-05T07:06:46.674Z,26.54
2022-08-05T07:07:46.688Z,26.60
2022-08-05T07:08:47.928Z,26.62
2022-08-05T07:09:46.657Z,26.66
2022-08-05T07:10:52.758Z,26.67
2022-08-05T07:11:51.388Z,26.70
2022-08-05T07:12:49.031Z,26.76
2022-08-05T07:13:59.338Z,26.81
2022-08-05T07:14:46.575Z,26.81
2022-08-05T07:16:01.184Z,26.84
2022-08-05T07:18:02.351Z,26.85
2022-08-05T07:18:26.981Z,26.85
2022-08-05T07:18:47.900Z,26.87
2022-08-05T07:20:46.510Z,26.92
2022-08-05T07:22:00.261Z,26.95
2022-08-05T07:22:47.843Z,26.95
2022-08-05T07:23:49.869Z,26.92
2022-08-05T07:24:52.419Z,26.91
2022-08-05T07:25:56.239Z,26.88
2022-08-05T07:26:46.416Z,26.88
2022-08-05T07:27:58.634Z,26.89
2022-08-05T07:28:46.422Z,26.94
2022-08-05T07:30:28.453Z,27.00
2022-08-05T07:30:50.371Z,27.10
2022-08-05T07:31:55.004Z,27.21
2022-08-05T07:32:46.391Z,27.32
2022-08-05T07:33:46.349Z,27.46
2022-08-05T07:34:46.337Z,27.59
2022-08-05T07:36:04.657Z,27.67
2022-08-05T07:36:46.306Z,27.74
2022-08-05T07:37:47.246Z,27.85
2022-08-05T07:38:46.717Z,27.92
2022-08-05T07:40:26.680Z,27.97
2022-08-05T07:40:46.306Z,28.11
2022-08-05T07:42:13.475Z,28.25
2022-08-05T07:42:46.266Z,28.33
2022-08-05T07:43:46.220Z,28.37
2022-08-05T07:44:46.293Z,28.41
2022-08-05T07:45:56.968Z,28.34
2022-08-05T07:46:48.383Z,28.27
2022-08-05T07:47:46.135Z,28.25
2022-08-05T07:49:01.428Z,28.14
2022-08-05T07:49:54.222Z,27.99
2022-08-05T07:50:46.118Z,27.81
2022-08-05T07:51:53.356Z,27.74
2022-08-05T07:52:46.090Z,27.69
2022-08-05T07:53:49.947Z,27.66
2022-08-05T07:54:47.669Z,27.60
2022-08-05T07:56:05.589Z,27.55
2022-08-05T07:57:01.932Z,27.47
2022-08-05T07:57:58.794Z,27.46
2022-08-05T07:58:58.717Z,27.46
2022-08-05T07:59:46.920Z,27.49
2022-08-05T08:00:46.074Z,27.51
2022-08-05T08:01:51.981Z,27.67
2022-08-05T08:03:15.375Z,27.92
2022-08-05T08:03:45.963Z,28.07
2022-08-05T08:04:45.957Z,28.25
2022-08-05T08:05:49.728Z,28.37
2022-08-05T08:06:45.903Z,28.56
2022-08-05T08:07:59.090Z,28.83
2022-08-05T08:08:45.888Z,29.12
2022-08-05T08:09:45.884Z,29.31
2022-08-05T08:10:48.659Z,29.53
2022-08-05T08:11:48.256Z,29.67
2022-08-05T08:12:49.608Z,29.76
2022-08-05T08:13:49.555Z,29.73
2022-08-05T08:14:46.702Z,29.68
2022-08-05T08:16:34.856Z,29.58
2022-08-05T08:16:55.148Z,29.70
2022-08-05T08:17:49.789Z,29.87
2022-08-05T08:18:50.134Z,30.05
2022-08-05T08:20:21.697Z,30.20
2022-08-05T08:21:03.114Z,30.37
2022-08-05T08:21:45.823Z,30.53
2022-08-05T08:22:45.744Z,30.61
2022-08-05T08:24:02.839Z,30.60
2022-08-05T08:24:46.033Z,30.54
2022-08-05T08:26:00.673Z,30.58
2022-08-05T08:26:45.645Z,30.72
2022-08-05T08:27:47.919Z,30.79
2022-08-05T08:28:59.144Z,30.73
2022-08-05T08:30:03.656Z,30.49
2022-08-05T08:30:47.973Z,30.38
2022-08-05T08:31:45.570Z,30.51
2022-08-05T08:32:45.619Z,30.69
2022-08-05T08:33:45.588Z,30.86
2022-08-05T08:34:45.594Z,31.04
2022-08-05T08:35:53.913Z,30.80
2022-08-05T08:36:49.001Z,30.80
2022-08-05T08:37:45.591Z,30.99
2022-08-05T08:38:53.232Z,31.09
2022-08-05T08:39:49.691Z,30.89
2022-08-05T08:40:51.505Z,30.60
2022-08-05T08:41:52.696Z,30.34
2022-08-05T08:42:52.617Z,30.24
2022-08-05T08:45:21.321Z,30.23
2022-08-05T08:45:30.714Z,30.37
2022-08-05T08:45:45.416Z,30.39
2022-08-05T08:46:45.375Z,30.15
2022-08-05T08:48:06.297Z,30.07
2022-08-05T08:49:06.255Z,30.01
2022-08-05T08:50:23.042Z,30.01
2022-08-05T08:51:03.411Z,30.17
2022-08-05T08:52:03.097Z,30.22
2022-08-05T08:52:47.407Z,30.23
2022-08-05T08:53:45.448Z,30.35
2022-08-05T08:54:46.029Z,30.47
2022-08-05T08:56:05.252Z,30.72
2022-08-05T08:56:47.578Z,30.92
2022-08-05T08:57:57.893Z,31.01
2022-08-05T08:58:48.819Z,31.14
2022-08-05T08:59:47.388Z,31.32
2022-08-05T09:00:45.303Z,31.56
2022-08-05T09:01:45.215Z,31.80
2022-08-05T09:02:45.195Z,32.03
2022-08-05T09:03:45.624Z,32.13
2022-08-05T09:04:58.312Z,32.11
2022-08-05T09:06:07.961Z,32.08
2022-08-05T09:06:45.174Z,32.11
2022-08-05T09:07:57.578Z,32.30
2022-08-05T09:08:45.150Z,32.43
2022-08-05T09:09:45.130Z,32.45
2022-08-05T09:10:45.112Z,32.45
2022-08-05T09:11:51.449Z,32.57
2022-08-05T09:12:45.113Z,32.70
2022-08-05T09:14:09.663Z,32.81
2022-08-05T09:15:05.592Z,32.74
2022-08-05T09:15:45.084Z,32.70
2022-08-05T09:16:48.702Z,32.41
2022-08-05T09:17:45.729Z,32.10
2022-08-05T09:18:45.012Z,31.88
2022-08-05T09:20:01.734Z,31.92
2022-08-05T09:20:44.980Z,31.92
2022-08-05T09:22:22.029Z,31.73
2022-08-05T09:22:51.967Z,31.76
2022-08-05T09:23:44.960Z,31.92
2022-08-05T09:24:44.914Z,32.10
2022-08-05T09:26:00.172Z,32.18
2022-08-05T09:26:44.926Z,32.21
2022-08-05T09:28:04.345Z,32.04
2022-08-05T09:28:44.918Z,32.03
2022-08-05T09:29:48.083Z,32.04
2022-08-05T09:30:44.878Z,31.99
2022-08-05T09:32:40.726Z,31.92
2022-08-05T09:32:47.502Z,32.04
2022-08-05T09:33:44.855Z,31.93
2022-08-05T09:34:44.838Z,31.95
2022-08-05T09:35:44.816Z,31.96
2022-08-05T09:36:53.856Z,32.11
2022-08-05T09:38:12.034Z,32.30
2022-08-05T09:38:44.764Z,32.48
2022-08-05T09:39:52.110Z,32.63
2022-08-05T09:40:52.198Z,32.72
2022-08-05T09:41:44.755Z,32.74
2022-08-05T09:42:44.754Z,32.56
2022-08-05T09:43:44.700Z,32.50
2022-08-05T09:44:45.287Z,32.55
2022-08-05T09:46:07.370Z,32.69
2022-08-05T09:46:51.607Z,32.65
2022-08-05T09:47:54.990Z,32.47
2022-08-05T09:49:06.987Z,32.55
2022-08-05T09:50:00.799Z,32.59
2022-08-05T09:50:45.418Z,32.57
2022-08-05T09:51:44.607Z,32.45
2022-08-05T09:52:45.044Z,32.26
2022-08-05T09:53:54.820Z,32.23
2022-08-05T09:54:44.572Z,32.32
2022-08-05T09:55:58.137Z,32.29
2022-08-05T09:56:52.309Z,32.35
2022-08-05T09:57:44.536Z,32.37
2022-08-05T09:58:44.521Z,32.40
2022-08-05T09:59:44.511Z,32.38
2022-08-05T10:00:44.481Z,32.32
2022-08-05T10:01:45.847Z,32.28
2022-08-05T10:02:44.588Z,32.32
2022-08-05T10:03:58.750Z,32.26
2022-08-05T10:04:44.440Z,32.13
2022-08-05T10:05:44.448Z,32.03
2022-08-05T10:06:49.793Z,31.73
2022-08-05T10:08:10.884Z,31.61
2022-08-05T10:08:53.709Z,31.34
2022-08-05T10:09:45.129Z,31.36
2022-08-05T10:10:44.371Z,31.41
2022-08-05T10:11:44.348Z,31.43
2022-08-05T10:12:49.760Z,31.34
2022-08-05T10:13:48.320Z,31.20
2022-08-05T10:14:44.837Z,30.91
2022-08-05T10:15:44.296Z,30.70
2022-08-05T10:16:52.887Z,30.79
2022-08-05T10:17:47.404Z,30.88
2022-08-05T10:18:44.272Z,31.07
2022-08-05T10:20:02.862Z,31.29
2022-08-05T10:20:44.371Z,31.54
2022-08-05T10:21:44.169Z,31.72
2022-08-05T10:22:50.733Z,31.91
2022-08-05T10:23:55.374Z,32.03
2022-08-05T10:24:46.016Z,32.18
2022-08-05T10:25:44.151Z,32.32
2022-08-05T10:26:51.844Z,32.22
2022-08-05T10:28:12.751Z,32.26
2022-08-05T10:28:45.130Z,32.21
2022-08-05T10:30:41.556Z,31.92
2022-08-05T10:33:02.483Z,31.70
2022-08-05T10:33:09.344Z,31.56
2022-08-05T10:34:07.882Z,31.54
2022-08-05T10:35:04.585Z,31.62
2022-08-05T10:36:04.591Z,31.70
2022-08-05T10:37:04.613Z,31.78
2022-08-05T10:38:04.519Z,31.86
2022-08-05T10:39:04.987Z,31.93
2022-08-05T10:40:16.890Z,31.96
2022-08-05T10:41:04.619Z,31.96
2022-08-05T10:42:04.501Z,31.91
2022-08-05T10:43:04.576Z,31.88
2022-08-05T10:44:04.790Z,31.84
2022-08-05T10:45:21.589Z,31.96
2022-08-05T10:46:06.714Z,32.01
2022-08-05T10:47:04.443Z,31.91
2022-08-05T10:48:31.459Z,31.81
2022-08-05T10:49:09.848Z,31.85
2022-08-05T10:50:32.496Z,31.81
2022-08-05T10:51:04.384Z,31.80
2022-08-05T10:52:05.279Z,31.75
2022-08-05T10:53:04.394Z,31.66
2022-08-05T10:54:23.132Z,31.63
2022-08-05T10:55:05.298Z,31.70
2022-08-05T10:56:14.735Z,31.68
2022-08-05T10:57:04.309Z,31.69
2022-08-05T10:58:04.293Z,31.81
2022-08-05T10:59:11.466Z,31.99
2022-08-05T11:00:09.907Z,32.13
2022-08-05T11:01:04.243Z,32.22
2022-08-05T11:02:05.332Z,32.26
2022-08-05T11:03:23.117Z,32.35
2022-08-05T11:04:04.289Z,32.37
2022-08-05T11:05:04.197Z,32.29
2022-08-05T11:06:04.194Z,32.25
2022-08-05T11:07:04.203Z,32.14
2022-08-05T11:08:33.797Z,32.11
2022-08-05T11:09:04.131Z,31.68
2022-08-05T11:10:10.028Z,31.57
2022-08-05T11:11:09.741Z,31.48
2022-08-05T11:12:04.195Z,31.28
2022-08-05T11:13:04.088Z,31.23
2022-08-05T11:14:04.065Z,31.25
2022-08-05T11:15:11.586Z,31.41
2022-08-05T11:16:04.056Z,31.38
2022-08-05T11:17:57.777Z,31.10
2022-08-05T11:18:05.895Z,31.04
2022-08-05T11:20:10.894Z,31.10
2022-08-05T11:20:22.406Z,31.20
2022-08-05T11:21:06.527Z,31.28
2022-08-05T11:22:04.007Z,31.31
2022-08-05T11:23:06.149Z,31.43
2022-08-05T11:24:30.383Z,31.54
2022-08-05T11:25:16.443Z,31.57
2022-08-05T11:26:09.052Z,31.57
2022-08-05T11:27:03.913Z,31.43
2022-08-05T11:28:03.890Z,31.28
2022-08-05T11:29:12.077Z,31.02
2022-08-05T11:30:03.864Z,30.80
2022-08-05T11:31:06.569Z,30.65
2022-08-05T11:32:03.849Z,30.69
2022-08-05T11:33:03.843Z,30.88
2022-08-05T11:34:03.805Z,31.10
2022-08-05T11:35:03.824Z,31.35
2022-08-05T11:36:08.625Z,31.53
2022-08-05T11:37:06.212Z,31.50
2022-08-05T11:38:51.015Z,31.56
2022-08-05T11:39:03.854Z,31.66
2022-08-05T11:40:04.518Z,31.75
2022-08-05T11:41:34.170Z,31.80
2022-08-05T11:42:04.535Z,31.84
2022-08-05T11:43:03.705Z,31.81
2022-08-05T11:44:05.628Z,31.70
2022-08-05T11:45:03.681Z,31.62
2022-08-05T11:46:15.611Z,31.69
2022-08-05T11:47:11.727Z,31.78
2022-08-05T11:48:03.651Z,31.88
2022-08-05T11:49:03.644Z,32.01
2022-08-05T11:50:03.611Z,32.13
2022-08-05T11:51:03.594Z,32.13
2022-08-05T11:52:08.661Z,32.13
2022-08-05T11:53:03.588Z,32.04
2022-08-05T11:54:03.587Z,31.95
2022-08-05T11:55:07.730Z,31.91
2022-08-05T11:56:03.526Z,31.85
2022-08-05T11:57:08.560Z,31.69
2022-08-05T11:58:10.454Z,31.69
2022-08-05T11:59:03.501Z,31.73
2022-08-05T12:00:03.541Z,31.81
2022-08-05T12:01:03.527Z,31.91
2022-08-05T12:02:03.447Z,32.01
2022-08-05T12:03:03.523Z,32.11
2022-08-05T12:04:03.484Z,32.19
2022-08-05T12:05:07.027Z,32.19
2022-08-05T12:06:06.184Z,32.19
2022-08-05T12:07:03.425Z,32.28
2022-08-05T12:08:10.841Z,32.33
2022-08-05T12:09:03.415Z,32.35
2022-08-05T12:10:09.248Z,32.23
2022-08-05T12:11:05.581Z,32.10
2022-08-05T12:12:03.342Z,32.07
2022-08-05T12:13:03.352Z,32.06
2022-08-05T12:14:03.919Z,32.22
2022-08-05T12:15:03.317Z,32.35
2022-08-05T12:16:03.320Z,32.45
2022-08-05T12:17:03.306Z,32.48
2022-08-05T12:18:10.704Z,32.43
2022-08-05T12:19:03.262Z,32.47
2022-08-05T12:20:25.539Z,32.50
2022-08-05T12:21:03.386Z,32.33
2022-08-05T12:22:03.242Z,32.23
2022-08-05T12:23:03.193Z,32.15
2022-08-05T12:24:04.325Z,32.10
2022-08-05T12:25:03.203Z,32.22
2022-08-05T12:26:03.293Z,32.33
2022-08-05T12:27:09.841Z,32.43
2022-08-05T12:28:03.140Z,32.47
2022-08-05T12:29:03.324Z,32.52
2022-08-05T12:30:03.528Z,32.48
2022-08-05T12:31:03.121Z,32.43
2022-08-05T12:32:04.635Z,32.38
2022-08-05T12:33:06.874Z,32.29
2022-08-05T12:34:03.323Z,32.06
2022-08-05T12:35:04.168Z,31.84
2022-08-05T12:36:03.138Z,31.86
2022-08-05T12:37:03.334Z,31.92
2022-08-05T12:38:03.084Z,32.00
2022-08-05T12:39:03.079Z,31.96
2022-08-05T12:40:03.506Z,31.93
2022-08-05T12:41:02.992Z,32.04
2022-08-05T12:42:02.967Z,32.11
2022-08-05T12:43:03.005Z,32.11
2022-08-05T12:44:02.971Z,32.08
2022-08-05T12:45:02.937Z,32.07
2022-08-05T12:46:02.935Z,32.18
2022-08-05T12:47:02.907Z,32.15
2022-08-05T12:48:17.724Z,32.23
2022-08-05T12:49:12.954Z,32.29
2022-08-05T12:50:06.475Z,32.19
2022-08-05T12:51:02.874Z,32.14
2022-08-05T12:52:14.264Z,32.19
2022-08-05T12:53:02.808Z,32.29
2022-08-05T12:54:02.877Z,32.29
2022-08-05T12:55:02.801Z,32.25
2022-08-05T12:56:02.789Z,32.23
2022-08-05T12:57:02.785Z,32.13